Time;durP1;ratioP1;P1;durP2;ratioP2;P2;SDS_P1;SDS_P2;PMS_P1;PMS_P2;Temp;Humidity;BMP_temperature;BMP_pressure;BME280_temperature;BME280_humidity;BME280_pressure;Samples;Min_cycle;Max_cycle;Signal;HPM_P1;HPM_P2
2022/05/05 00:02:20;;;;;;;4.57;2.03;;;;;;;;;;5034322;28;20201;-45
2022/05/05 00:04:47;;;;;;;5.03;2.28;;;;;;;;;;5034341;28;20259;-44
2022/05/05 00:07:14;;;;;;;3.80;2.05;;;;;;;;;;5034361;28;20239;-44
2022/05/05 00:09:42;;;;;;;4.47;2.17;;;;;;;;;;5034120;28;20212;-44
2022/05/05 00:14:55;;;;;;;5.22;1.98;;;;;;;;;;5034135;28;20545;-44
2022/05/05 00:17:23;;;;;;;3.22;1.92;;;;;;;;;;5048915;28;20211;-44
2022/05/05 00:19:51;;;;;;;5.20;1.90;;;;;;;;;;5033973;28;20204;-44
2022/05/05 00:22:19;;;;;;;6.30;2.20;;;;;;;;;;5034370;28;20227;-44
2022/05/05 00:24:46;;;;;;;3.45;2.05;;;;;;;;;;5034245;28;20244;-44
2022/05/05 00:27:13;;;;;;;5.38;2.17;;;;;;;;;;5034297;28;20292;-44
2022/05/05 00:29:40;;;;;;;3.63;1.98;;;;;;;;;;5034033;28;20200;-44
2022/05/05 00:32:07;;;;;;;6.22;2.50;;;;;;;;;;5034038;28;20200;-44
2022/05/05 00:34:34;;;;;;;4.00;2.15;;;;;;;;;;5033834;28;20639;-45
2022/05/05 00:37:02;;;;;;;7.68;2.00;;;;;;;;;;5034982;28;20204;-43
2022/05/05 00:39:29;;;;;;;6.25;2.03;;;;;;;;;;5037867;28;20209;-43
2022/05/05 00:41:57;;;;;;;7.78;2.40;;;;;;;;;;5037714;28;20209;-44
2022/05/05 00:44:25;;;;;;;4.85;2.22;;;;;;;;;;5037689;28;20297;-44
2022/05/05 00:46:52;;;;;;;4.90;2.00;;;;;;;;;;5038068;28;20216;-44
2022/05/05 00:49:19;;;;;;;4.15;2.22;;;;;;;;;;5037906;28;20228;-43
2022/05/05 00:51:47;;;;;;;6.07;2.15;;;;;;;;;;5037783;28;20682;-45
2022/05/05 00:54:14;;;;;;;3.95;2.10;;;;;;;;;;5037557;28;20270;-44
2022/05/05 00:56:44;;;;;;;6.20;2.42;;;;;;;;;;5037345;28;20212;-43
2022/05/05 00:59:11;;;;;;;3.83;2.20;;;;;;;;;;5037930;28;20220;-44
2022/05/05 01:01:39;;;;;;;4.88;2.25;;;;;;;;;;5037657;28;20559;-43
2022/05/05 01:04:07;;;;;;;6.53;2.28;;;;;;;;;;5037750;28;20331;-45
2022/05/05 01:06:35;;;;;;;8.40;2.40;;;;;;;;;;5020585;28;20262;-43
2022/05/05 01:09:06;;;;;;;3.08;2.08;;;;;;;;;;5037675;28;20181;-44
2022/05/05 01:11:33;;;;;;;6.63;2.65;;;;;;;;;;5037246;28;20201;-44
2022/05/05 01:14:01;;;;;;;5.55;2.58;;;;;;;;;;5037342;28;20545;-44
2022/05/05 01:16:29;;;;;;;7.10;2.70;;;;;;;;;;5037248;28;20220;-44
2022/05/05 01:18:56;;;;;;;9.57;2.65;;;;;;;;;;5036729;28;20208;-44
2022/05/05 01:21:24;;;;;;;5.93;2.85;;;;;;;;;;5037412;28;20549;-44
2022/05/05 01:23:51;;;;;;;5.90;2.42;;;;;;;;;;5036180;28;20275;-44
2022/05/05 01:29:05;;;;;;;9.00;2.55;;;;;;;;;;5037146;28;20758;-44
2022/05/05 01:31:32;;;;;;;7.97;2.47;;;;;;;;;;5037066;28;20200;-45
2022/05/05 01:33:59;;;;;;;5.43;2.42;;;;;;;;;;5037075;28;20208;-44
2022/05/05 01:36:27;;;;;;;11.15;2.67;;;;;;;;;;5036346;28;20213;-44
2022/05/05 01:38:54;;;;;;;7.15;2.67;;;;;;;;;;5036783;28;20226;-45
2022/05/05 01:41:21;;;;;;;8.88;2.80;;;;;;;;;;5037150;28;20239;-44
2022/05/05 01:43:49;;;;;;;5.30;2.60;;;;;;;;;;5036649;28;20200;-44
2022/05/05 01:46:16;;;;;;;5.38;2.50;;;;;;;;;;5036972;28;20316;-44
2022/05/05 01:48:43;;;;;;;5.78;2.85;;;;;;;;;;5035633;28;20211;-44
2022/05/05 01:51:11;;;;;;;11.95;3.10;;;;;;;;;;5037037;28;20232;-43
2022/05/05 01:53:38;;;;;;;7.35;2.60;;;;;;;;;;5036613;28;20701;-44
2022/05/05 01:56:11;;;;;;;6.85;2.42;;;;;;;;;;5036560;28;20209;-43
2022/05/05 01:58:42;;;;;;;7.45;2.60;;;;;;;;;;5036717;28;20277;-44
2022/05/05 02:01:10;;;;;;;5.10;2.58;;;;;;;;;;5036426;28;20204;-45
2022/05/05 02:03:38;;;;;;;6.80;3.10;;;;;;;;;;5036612;28;20291;-44
2022/05/05 02:06:05;;;;;;;4.60;2.70;;;;;;;;;;5036554;28;20239;-44
2022/05/05 02:08:33;;;;;;;4.70;2.78;;;;;;;;;;5036574;28;20204;-43
2022/05/05 02:11:00;;;;;;;4.45;2.47;;;;;;;;;;5036304;28;20657;-44
2022/05/05 02:13:27;;;;;;;5.50;2.42;;;;;;;;;;5036248;28;20205;-44
2022/05/05 02:15:54;;;;;;;5.47;2.70;;;;;;;;;;5035952;28;20215;-44
2022/05/05 02:18:21;;;;;;;3.95;2.47;;;;;;;;;;5036365;28;20209;-44
2022/05/05 02:20:48;;;;;;;8.43;2.40;;;;;;;;;;5035836;28;20200;-44
2022/05/05 02:23:15;;;;;;;6.78;2.42;;;;;;;;;;5035820;28;20674;-44
2022/05/05 02:25:43;;;;;;;3.35;2.38;;;;;;;;;;5035607;28;20252;-44
2022/05/05 02:28:10;;;;;;;4.85;2.53;;;;;;;;;;5035667;28;20209;-45
2022/05/05 02:30:37;;;;;;;7.07;2.30;;;;;;;;;;5035746;28;20196;-43
2022/05/05 02:33:04;;;;;;;6.03;2.72;;;;;;;;;;5035657;28;20201;-43
2022/05/05 02:35:32;;;;;;;6.20;2.47;;;;;;;;;;5035547;28;20267;-44
2022/05/05 02:40:45;;;;;;;4.47;2.50;;;;;;;;;;5035828;28;20220;-45
2022/05/05 02:43:12;;;;;;;6.70;3.00;;;;;;;;;;5035747;28;20248;-43
2022/05/05 02:45:40;;;;;;;6.93;2.50;;;;;;;;;;5035369;28;20224;-44
2022/05/05 02:48:08;;;;;;;6.90;2.60;;;;;;;;;;5035304;28;20212;-44
2022/05/05 02:50:35;;;;;;;5.22;2.60;;;;;;;;;;5035156;28;20229;-44
2022/05/05 02:55:53;;;;;;;6.47;2.60;;;;;;;;;;5035137;28;20541;-43
2022/05/05 02:58:21;;;;;;;8.10;2.95;;;;;;;;;;5034855;28;20205;-45
2022/05/05 03:00:48;;;;;;;4.33;2.40;;;;;;;;;;5034584;28;20209;-44
2022/05/05 03:03:15;;;;;;;5.95;2.70;;;;;;;;;;5034467;28;20286;-44
2022/05/05 03:05:43;;;;;;;5.63;2.70;;;;;;;;;;5035181;28;20671;-44
2022/05/05 03:08:10;;;;;;;4.78;2.38;;;;;;;;;;5034760;28;20216;-44
2022/05/05 03:10:37;;;;;;;7.93;2.92;;;;;;;;;;5034909;28;20220;-46
2022/05/05 03:13:05;;;;;;;4.75;2.67;;;;;;;;;;5034824;28;20208;-45
2022/05/05 03:15:32;;;;;;;7.43;2.70;;;;;;;;;;5035110;28;20273;-44
2022/05/05 03:17:59;;;;;;;7.43;3.13;;;;;;;;;;5034825;28;20204;-44
2022/05/05 03:20:27;;;;;;;8.57;2.85;;;;;;;;;;5035017;28;20200;-45
2022/05/05 03:22:54;;;;;;;4.85;2.70;;;;;;;;;;5035169;28;20197;-43
2022/05/05 03:25:21;;;;;;;6.13;2.80;;;;;;;;;;5034712;28;20245;-44
2022/05/05 03:27:49;;;;;;;4.93;2.80;;;;;;;;;;5034721;28;20213;-44
2022/05/05 03:30:16;;;;;;;7.53;2.55;;;;;;;;;;5034965;28;20212;-47
2022/05/05 03:32:43;;;;;;;5.68;2.67;;;;;;;;;;5034806;28;20197;-44
2022/05/05 03:35:11;;;;;;;4.60;2.80;;;;;;;;;;5035210;28;20196;-44
2022/05/05 03:37:38;;;;;;;6.75;2.45;;;;;;;;;;5034677;28;20219;-45
2022/05/05 03:40:05;;;;;;;5.22;2.58;;;;;;;;;;5034611;28;20636;-44
2022/05/05 03:42:33;;;;;;;6.90;3.20;;;;;;;;;;5034449;28;20266;-44
2022/05/05 03:45:00;;;;;;;5.63;2.42;;;;;;;;;;5034575;28;20705;-45
2022/05/05 03:47:27;;;;;;;9.25;3.15;;;;;;;;;;5049397;28;20631;-44
2022/05/05 03:49:54;;;;;;;5.85;2.75;;;;;;;;;;5034192;28;20232;-45
2022/05/05 03:52:22;;;;;;;10.52;3.08;;;;;;;;;;5028852;28;20619;-46
2022/05/05 03:54:49;;;;;;;11.60;3.30;;;;;;;;;;5031166;28;20205;-47
2022/05/05 03:57:16;;;;;;;6.47;2.90;;;;;;;;;;5033926;28;20200;-45
2022/05/05 03:59:43;;;;;;;5.43;2.63;;;;;;;;;;5022184;28;20224;-44
2022/05/05 04:02:11;;;;;;;7.15;2.90;;;;;;;;;;5029302;28;20250;-45
2022/05/05 04:04:38;;;;;;;4.25;2.90;;;;;;;;;;5034742;28;20545;-43
2022/05/05 04:07:05;;;;;;;8.27;2.90;;;;;;;;;;5029711;28;20554;-43
2022/05/05 04:09:32;;;;;;;8.80;3.17;;;;;;;;;;5027620;28;20212;-44
2022/05/05 04:12:00;;;;;;;9.82;2.95;;;;;;;;;;5028519;28;20221;-43
2022/05/05 04:14:27;;;;;;;4.93;2.88;;;;;;;;;;5029190;28;20221;-46
2022/05/05 04:16:54;;;;;;;9.32;2.90;;;;;;;;;;5025712;28;20231;-41
2022/05/05 04:19:21;;;;;;;7.43;3.03;;;;;;;;;;5013703;28;20225;-44
2022/05/05 04:21:48;;;;;;;6.10;3.00;;;;;;;;;;5013514;28;20221;-42
2022/05/05 04:24:15;;;;;;;8.18;3.03;;;;;;;;;;5017899;28;20505;-42
2022/05/05 04:26:43;;;;;;;8.75;2.83;;;;;;;;;;5033001;28;20236;-43
2022/05/05 04:29:11;;;;;;;9.00;2.72;;;;;;;;;;5032768;28;20312;-42
2022/05/05 04:31:38;;;;;;;5.93;2.92;;;;;;;;;;5016045;28;20239;-43
2022/05/05 04:34:06;;;;;;;9.15;3.10;;;;;;;;;;5024982;28;20611;-44
2022/05/05 04:36:35;;;;;;;4.13;2.40;;;;;;;;;;5017206;28;20220;-42
2022/05/05 04:39:03;;;;;;;6.78;2.80;;;;;;;;;;5014809;28;20225;-42
2022/05/05 04:41:30;;;;;;;8.13;2.60;;;;;;;;;;5024893;28;20229;-42
2022/05/05 04:43:58;;;;;;;8.48;3.08;;;;;;;;;;5038740;28;20250;-43
2022/05/05 04:46:25;;;;;;;6.20;2.80;;;;;;;;;;5051477;28;20246;-43
2022/05/05 04:48:53;;;;;;;8.70;2.97;;;;;;;;;;5053182;28;20251;-42
2022/05/05 04:51:20;;;;;;;4.13;2.63;;;;;;;;;;5052845;28;20224;-43
2022/05/05 04:53:47;;;;;;;5.63;2.65;;;;;;;;;;5053156;28;20251;-42
2022/05/05 04:56:14;;;;;;;5.82;2.55;;;;;;;;;;5048949;28;20655;-42
2022/05/05 04:58:42;;;;;;;10.45;2.60;;;;;;;;;;5032229;28;20741;-43
2022/05/05 05:01:09;;;;;;;7.00;2.63;;;;;;;;;;5032666;28;20235;-45
2022/05/05 05:03:36;;;;;;;6.00;2.83;;;;;;;;;;5032031;28;20216;-45
2022/05/05 05:06:05;;;;;;;5.03;2.47;;;;;;;;;;5032026;28;20562;-44
2022/05/05 05:08:33;;;;;;;9.98;2.63;;;;;;;;;;5031758;28;20217;-44
2022/05/05 05:11:01;;;;;;;5.00;2.58;;;;;;;;;;5029603;28;20225;-44
2022/05/05 05:13:28;;;;;;;6.38;2.67;;;;;;;;;;5031927;28;20224;-45
2022/05/05 05:15:55;;;;;;;4.53;2.08;;;;;;;;;;5032108;28;20528;-46
2022/05/05 05:18:23;;;;;;;10.73;2.53;;;;;;;;;;5032100;28;20597;-43
2022/05/05 05:20:50;;;;;;;3.85;2.00;;;;;;;;;;5031720;28;20220;-46
2022/05/05 05:23:17;;;;;;;5.05;2.65;;;;;;;;;;5032797;28;20675;-44
2022/05/05 05:25:45;;;;;;;4.28;2.25;;;;;;;;;;5034671;28;20229;-44
2022/05/05 05:28:13;;;;;;;5.03;2.67;;;;;;;;;;5034526;28;20224;-44
2022/05/05 05:30:41;;;;;;;8.75;2.25;;;;;;;;;;5031671;28;20544;-44
2022/05/05 05:33:08;;;;;;;9.90;2.15;;;;;;;;;;5025669;28;20228;-41
2022/05/05 05:35:35;;;;;;;6.75;2.60;;;;;;;;;;5044041;28;20671;-42
2022/05/05 05:38:02;;;;;;;9.15;2.50;;;;;;;;;;5046847;28;20586;-44
2022/05/05 05:40:30;;;;;;;6.80;2.45;;;;;;;;;;5048754;28;20235;-46
2022/05/05 05:42:58;;;;;;;8.88;2.40;;;;;;;;;;5048521;28;20219;-44
2022/05/05 05:45:26;;;;;;;4.82;2.28;;;;;;;;;;5044735;28;20709;-43
2022/05/05 05:47:53;;;;;;;4.55;2.28;;;;;;;;;;5039766;28;20240;-43
2022/05/05 05:50:20;;;;;;;9.35;2.20;;;;;;;;;;5036652;28;20232;-44
2022/05/05 05:52:48;;;;;;;3.42;2.05;;;;;;;;;;5036740;28;20237;-47
2022/05/05 05:55:15;;;;;;;6.65;2.10;;;;;;;;;;5036469;28;20228;-43
2022/05/05 05:57:42;;;;;;;4.15;2.55;;;;;;;;;;5036201;28;20221;-43
2022/05/05 06:00:10;;;;;;;8.00;2.38;;;;;;;;;;5036085;28;20221;-44
2022/05/05 06:05:26;;;;;;;9.35;2.25;;;;;;;;;;5036178;28;20227;-43
2022/05/05 06:07:59;;;;;;;5.90;2.13;;;;;;;;;;5036159;28;20224;-43
2022/05/05 06:10:27;;;;;;;6.28;2.33;;;;;;;;;;5036163;28;20233;-43
2022/05/05 06:12:55;;;;;;;4.13;2.22;;;;;;;;;;5036064;28;20233;-43
2022/05/05 06:15:23;;;;;;;5.38;1.92;;;;;;;;;;5035648;28;20562;-43
2022/05/05 06:17:50;;;;;;;4.28;2.30;;;;;;;;;;5051408;28;20535;-44
2022/05/05 06:20:18;;;;;;;6.43;1.83;;;;;;;;;;5054907;28;20228;-44
2022/05/05 06:22:46;;;;;;;4.43;1.80;;;;;;;;;;5055763;28;20224;-43
2022/05/05 06:25:13;;;;;;;3.08;1.92;;;;;;;;;;5055564;28;20258;-43
2022/05/05 06:27:40;;;;;;;6.05;1.88;;;;;;;;;;5055419;28;20252;-43
2022/05/05 06:30:15;;;;;;;8.85;1.80;;;;;;;;;;5055286;28;20236;-43
2022/05/05 06:32:43;;;;;;;12.02;2.10;;;;;;;;;;5055571;28;20239;-43
2022/05/05 06:35:11;;;;;;;4.35;1.50;;;;;;;;;;5055011;28;20255;-43
2022/05/05 06:37:38;;;;;;;4.35;1.90;;;;;;;;;;5055563;28;20224;-44
2022/05/05 06:40:06;;;;;;;3.13;1.27;;;;;;;;;;5055435;28;20224;-43
2022/05/05 06:42:33;;;;;;;4.68;1.60;;;;;;;;;;5055510;28;20265;-44
2022/05/05 06:45:00;;;;;;;2.67;1.42;;;;;;;;;;5054079;28;20240;-45
2022/05/05 06:47:29;;;;;;;8.10;2.00;;;;;;;;;;5041825;28;20682;-44
2022/05/05 06:49:56;;;;;;;2.63;1.40;;;;;;;;;;5035446;28;20237;-45
2022/05/05 06:52:23;;;;;;;2.63;1.55;;;;;;;;;;5034970;28;20675;-44
2022/05/05 06:55:06;;;;;;;4.95;1.65;;;;;;;;;;5035434;28;20303;-43
2022/05/05 06:57:34;;;;;;;4.93;1.20;;;;;;;;;;5035241;28;20229;-44
2022/05/05 07:00:01;;;;;;;8.82;1.27;;;;;;;;;;5034636;28;20229;-42
2022/05/05 07:02:28;;;;;;;4.60;1.35;;;;;;;;;;5035076;28;20675;-43
2022/05/05 07:07:42;;;;;;;4.18;1.45;;;;;;;;;;5034913;28;20238;-44
2022/05/05 07:13:01;;;;;;;2.72;1.20;;;;;;;;;;5034918;28;20248;-44
2022/05/05 07:15:28;;;;;;;4.07;1.52;;;;;;;;;;5034563;28;20228;-44
2022/05/05 07:17:56;;;;;;;5.13;1.20;;;;;;;;;;5034460;28;20736;-43
2022/05/05 07:20:23;;;;;;;8.35;2.08;;;;;;;;;;5034737;28;20224;-42
2022/05/05 07:22:53;;;;;;;8.35;2.35;;;;;;;;;;5034757;28;20239;-43
2022/05/05 07:25:21;;;;;;;17.40;3.15;;;;;;;;;;5034879;28;20229;-44
2022/05/05 07:27:47;;;;;;;4.93;2.13;;;;;;;;;;5034885;28;20571;-43
2022/05/05 07:30:15;;;;;;;8.60;1.92;;;;;;;;;;5033910;28;20298;-43
2022/05/05 07:32:43;;;;;;;3.33;1.30;;;;;;;;;;5046870;28;20255;-41
2022/05/05 07:35:11;;;;;;;3.40;1.40;;;;;;;;;;5054142;28;20227;-43
2022/05/05 07:37:39;;;;;;;4.43;1.77;;;;;;;;;;5054673;28;20297;-41
2022/05/05 07:40:07;;;;;;;6.03;1.27;;;;;;;;;;5050056;28;20204;-44
2022/05/05 07:42:37;;;;;;;5.13;1.30;;;;;;;;;;5012266;28;20226;-42
2022/05/05 07:45:05;;;;;;;7.00;2.63;;;;;;;;;;5018254;28;20235;-43
2022/05/05 07:47:36;;;;;;;8.90;2.45;;;;;;;;;;5053020;28;20271;-44
2022/05/05 07:50:04;;;;;;;1.98;1.48;;;;;;;;;;5041697;28;20227;-44
2022/05/05 07:52:31;;;;;;;15.38;2.13;;;;;;;;;;5039878;28;20236;-44
2022/05/05 07:54:58;;;;;;;3.22;1.75;;;;;;;;;;5043441;28;20223;-43
2022/05/05 07:57:25;;;;;;;4.28;1.67;;;;;;;;;;5036737;28;20244;-43
2022/05/05 07:59:52;;;;;;;7.78;1.73;;;;;;;;;;5034144;28;20699;-45
2022/05/05 08:02:20;;;;;;;4.53;1.70;;;;;;;;;;5034282;28;20244;-43
2022/05/05 08:04:47;;;;;;;6.50;1.95;;;;;;;;;;5033961;28;20220;-43
2022/05/05 08:07:15;;;;;;;2.47;1.30;;;;;;;;;;5034175;28;20236;-43
2022/05/05 08:09:42;;;;;;;5.97;2.42;;;;;;;;;;5033816;28;20731;-42
2022/05/05 08:12:27;;;;;;;10.77;2.65;;;;;;;;;;5033615;28;20236;-43
2022/05/05 08:14:55;;;;;;;6.38;1.80;;;;;;;;;;5034013;28;20233;-44
2022/05/05 08:17:22;;;;;;;8.68;1.50;;;;;;;;;;5033885;28;20233;-46
2022/05/05 08:19:50;;;;;;;5.05;1.50;;;;;;;;;;5034113;28;20216;-43
2022/05/05 08:22:18;;;;;;;5.63;1.80;;;;;;;;;;5033901;28;20235;-44
2022/05/05 08:30:17;;;;;;;4.65;1.38;;;;;;;;;;5054123;28;20243;-44
2022/05/05 08:32:45;;;;;;;6.18;1.20;;;;;;;;;;5053679;28;20609;-43
2022/05/05 08:35:12;;;;;;;7.30;1.52;;;;;;;;;;5054083;28;20311;-43
2022/05/05 08:37:39;;;;;;;3.05;1.20;;;;;;;;;;5053536;28;20650;-43
2022/05/05 08:40:07;;;;;;;10.55;1.60;;;;;;;;;;5053396;28;20294;-45
2022/05/05 08:42:35;;;;;;;5.70;1.65;;;;;;;;;;5053899;28;20227;-43
2022/05/05 08:45:02;;;;;;;6.50;1.60;;;;;;;;;;5054188;28;20761;-44
2022/05/05 08:47:31;;;;;;;6.53;1.40;;;;;;;;;;5054228;28;20242;-43
2022/05/05 08:50:00;;;;;;;7.05;1.67;;;;;;;;;;5054216;28;20606;-43
2022/05/05 08:52:35;;;;;;;6.18;1.70;;;;;;;;;;5054271;28;20521;-42
2022/05/05 08:55:03;;;;;;;6.90;2.10;;;;;;;;;;5055108;28;20199;-43
2022/05/05 08:57:30;;;;;;;3.67;1.90;;;;;;;;;;5054547;28;20204;-43
2022/05/05 08:59:58;;;;;;;4.50;1.40;;;;;;;;;;5057957;28;20204;-43
2022/05/05 09:02:25;;;;;;;3.50;1.60;;;;;;;;;;5057972;28;20212;-43
2022/05/05 09:04:53;;;;;;;6.05;1.42;;;;;;;;;;5057959;28;20245;-43
2022/05/05 09:07:20;;;;;;;7.93;1.52;;;;;;;;;;5056863;28;20622;-42
2022/05/05 09:09:49;;;;;;;6.82;1.70;;;;;;;;;;5057781;28;20204;-44
2022/05/05 09:12:19;;;;;;;2.13;1.30;;;;;;;;;;5057708;28;20700;-44
2022/05/05 09:14:50;;;;;;;5.10;1.90;;;;;;;;;;5058182;28;20204;-43
2022/05/05 09:17:23;;;;;;;3.47;1.73;;;;;;;;;;5057638;28;20263;-43
2022/05/05 09:19:54;;;;;;;7.22;1.70;;;;;;;;;;5057558;28;20691;-43
2022/05/05 09:22:24;;;;;;;4.55;1.70;;;;;;;;;;5058056;28;20274;-42
2022/05/05 09:24:56;;;;;;;4.50;1.73;;;;;;;;;;5057564;28;20208;-42
2022/05/05 09:27:29;;;;;;;4.90;1.70;;;;;;;;;;5057650;28;20553;-43
2022/05/05 09:30:09;;;;;;;4.07;1.40;;;;;;;;;;5057209;28;20188;-43
2022/05/05 09:32:40;;;;;;;3.47;1.55;;;;;;;;;;5057400;28;20536;-43
2022/05/05 09:35:14;;;;;;;6.00;2.00;;;;;;;;;;5057432;28;20286;-44
2022/05/05 09:37:46;;;;;;;3.15;1.60;;;;;;;;;;5057272;28;20654;-44
2022/05/05 09:40:17;;;;;;;3.15;1.40;;;;;;;;;;5057255;28;20196;-43
2022/05/05 09:42:47;;;;;;;7.10;1.50;;;;;;;;;;5057164;28;20269;-44
2022/05/05 09:45:32;;;;;;;2.33;1.48;;;;;;;;;;5057349;28;20214;-45
2022/05/05 09:48:04;;;;;;;9.30;2.15;;;;;;;;;;5057085;28;20239;-44
2022/05/05 09:50:33;;;;;;;7.43;1.52;;;;;;;;;;5056776;28;20235;-43
2022/05/05 09:58:37;;;;;;;3.42;1.70;;;;;;;;;;5057126;28;20237;-42
2022/05/05 10:01:08;;;;;;;5.97;1.98;;;;;;;;;;5046352;28;20536;-44
2022/05/05 10:04:05;;;;;;;5.50;2.60;;;;;;;;;;5056314;28;20232;-43
2022/05/05 10:06:36;;;;;;;6.88;1.90;;;;;;;;;;5055874;28;20200;-43
2022/05/05 10:09:14;;;;;;;9.65;2.05;;;;;;;;;;5055473;28;20287;-43
2022/05/05 10:11:42;;;;;;;6.18;1.98;;;;;;;;;;5056424;28;20200;-43
2022/05/05 10:14:11;;;;;;;5.25;1.70;;;;;;;;;;5056523;28;20206;-43
2022/05/05 10:16:40;;;;;;;6.18;2.03;;;;;;;;;;5056494;28;20231;-43
2022/05/05 10:19:09;;;;;;;8.45;1.75;;;;;;;;;;5057138;28;20204;-44
2022/05/05 10:21:57;;;;;;;5.05;1.65;;;;;;;;;;5056662;28;20196;-42
2022/05/05 10:24:29;;;;;;;6.25;1.55;;;;;;;;;;5056618;28;20650;-43
2022/05/05 10:27:05;;;;;;;2.70;1.45;;;;;;;;;;5056261;28;20212;-42
2022/05/05 10:29:42;;;;;;;4.05;2.10;;;;;;;;;;5056539;28;20219;-42
2022/05/05 10:32:23;;;;;;;9.32;1.77;;;;;;;;;;5056224;28;20199;-43
2022/05/05 10:34:53;;;;;;;5.85;1.73;;;;;;;;;;5055624;28;20268;-43
2022/05/05 10:37:22;;;;;;;8.02;1.55;;;;;;;;;;5056116;28;20265;-43
2022/05/05 10:40:01;;;;;;;5.35;1.70;;;;;;;;;;5055569;28;20200;-42
2022/05/05 10:42:29;;;;;;;6.82;1.80;;;;;;;;;;5056134;28;20195;-42
2022/05/05 10:45:05;;;;;;;6.93;1.70;;;;;;;;;;5041084;28;20617;-43
2022/05/05 10:47:55;;;;;;;3.15;1.70;;;;;;;;;;5037259;28;20686;-43
2022/05/05 10:50:56;;;;;;;4.40;1.48;;;;;;;;;;5042343;28;20236;-43
2022/05/05 10:53:31;;;;;;;6.68;1.67;;;;;;;;;;5042406;28;20674;-46
2022/05/05 10:56:03;;;;;;;4.82;1.70;;;;;;;;;;5045135;28;20224;-43
2022/05/05 10:59:19;;;;;;;6.88;1.90;;;;;;;;;;5047194;28;20221;-43
2022/05/05 11:01:46;;;;;;;9.20;2.15;;;;;;;;;;5030406;28;20319;-43
2022/05/05 11:04:17;;;;;;;5.90;1.88;;;;;;;;;;5035100;28;20220;-43
2022/05/05 11:06:45;;;;;;;4.70;1.60;;;;;;;;;;5034487;28;20690;-44
2022/05/05 11:09:30;;;;;;;5.95;1.80;;;;;;;;;;5034832;28;20231;-43
2022/05/05 11:12:22;;;;;;;4.18;1.60;;;;;;;;;;5035565;28;20200;-43
2022/05/05 11:21:35;;;;;;;6.88;1.55;;;;;;;;;;5035662;28;20196;-43
2022/05/05 11:24:04;;;;;;;8.30;1.88;;;;;;;;;;5035762;28;20212;-43
2022/05/05 11:26:34;;;;;;;5.05;1.80;;;;;;;;;;5035378;28;20213;-43
2022/05/05 11:29:01;;;;;;;11.27;3.30;;;;;;;;;;5035086;28;20605;-43
2022/05/05 11:31:30;;;;;;;10.10;1.88;;;;;;;;;;5034873;28;20208;-43
2022/05/05 11:34:03;;;;;;;6.90;2.03;;;;;;;;;;5035561;28;20643;-44
2022/05/05 11:36:37;;;;;;;6.80;1.73;;;;;;;;;;5035167;28;20594;-43
2022/05/05 11:39:06;;;;;;;7.78;2.40;;;;;;;;;;5034309;28;20231;-44
2022/05/05 11:41:35;;;;;;;12.73;2.60;;;;;;;;;;5054333;28;20240;-43
2022/05/05 11:44:17;;;;;;;11.15;2.97;;;;;;;;;;5054137;28;20220;-42
2022/05/05 11:46:44;;;;;;;42.10;4.32;;;;;;;;;;5054233;28;20236;-44
2022/05/05 11:49:12;;;;;;;7.57;1.55;;;;;;;;;;5050319;28;20244;-45
2022/05/05 11:51:39;;;;;;;6.55;1.60;;;;;;;;;;5026038;28;20216;-45
2022/05/05 11:54:14;;;;;;;6.60;1.65;;;;;;;;;;5036362;28;20223;-44
2022/05/05 11:56:47;;;;;;;6.65;1.80;;;;;;;;;;5054017;28;20306;-45
2022/05/05 12:02:10;;;;;;;5.40;1.60;;;;;;;;;;5054055;28;20220;-43
2022/05/05 12:04:40;;;;;;;9.18;1.73;;;;;;;;;;5054216;28;20663;-42
2022/05/05 12:07:09;;;;;;;5.78;1.83;;;;;;;;;;5054093;28;20311;-44
2022/05/05 12:09:37;;;;;;;6.53;1.60;;;;;;;;;;5052639;28;20721;-43
2022/05/05 12:12:11;;;;;;;7.70;2.05;;;;;;;;;;5053754;28;20243;-43
2022/05/05 12:14:47;;;;;;;2.60;1.85;;;;;;;;;;5053822;28;20238;-44
2022/05/05 12:17:18;;;;;;;3.70;1.75;;;;;;;;;;5054217;28;20223;-44
2022/05/05 12:19:52;;;;;;;5.45;1.85;;;;;;;;;;5053580;28;20231;-43
2022/05/05 12:22:29;;;;;;;4.10;1.65;;;;;;;;;;5053930;28;20231;-43
2022/05/05 12:25:14;;;;;;;8.07;1.80;;;;;;;;;;5042569;28;20242;-44
2022/05/05 12:27:45;;;;;;;6.60;1.77;;;;;;;;;;5034173;28;20236;-43
2022/05/05 12:30:39;;;;;;;7.88;1.90;;;;;;;;;;5033703;28;20225;-43
2022/05/05 12:33:09;;;;;;;5.70;2.25;;;;;;;;;;5034817;28;20227;-43
2022/05/05 12:35:38;;;;;;;8.05;2.03;;;;;;;;;;5037791;28;20674;-43
2022/05/05 12:38:06;;;;;;;4.22;1.80;;;;;;;;;;5037763;28;20227;-46
2022/05/05 12:40:35;;;;;;;3.38;1.95;;;;;;;;;;5037604;28;20227;-44
2022/05/05 12:43:07;;;;;;;9.02;1.75;;;;;;;;;;5037562;28;20287;-44
2022/05/05 12:45:36;;;;;;;4.57;1.80;;;;;;;;;;5035319;28;20223;-42
2022/05/05 12:48:06;;;;;;;3.55;1.98;;;;;;;;;;5033287;28;20553;-44
2022/05/05 12:50:43;;;;;;;6.80;2.15;;;;;;;;;;5037491;28;20232;-43
2022/05/05 13:01:38;;;;;;;3.78;1.98;;;;;;;;;;5057453;28;20236;-43
2022/05/05 13:04:09;;;;;;;5.78;1.90;;;;;;;;;;5057232;28;20227;-44
2022/05/05 13:06:38;;;;;;;4.60;2.17;;;;;;;;;;5057335;28;20589;-44
2022/05/05 13:09:09;;;;;;;9.73;2.10;;;;;;;;;;5057035;28;20270;-43
2022/05/05 13:11:38;;;;;;;6.10;1.65;;;;;;;;;;5055919;28;20682;-45
2022/05/05 13:14:05;;;;;;;7.40;1.90;;;;;;;;;;5031137;28;20526;-45
2022/05/05 13:16:33;;;;;;;4.03;1.95;;;;;;;;;;5017519;28;20225;-44
2022/05/05 13:19:02;;;;;;;8.65;2.17;;;;;;;;;;5017118;28;20308;-42
2022/05/05 13:22:03;;;;;;;6.93;1.90;;;;;;;;;;5016982;28;20232;-44
2022/05/05 13:24:23;;;;;;;6.10;2.03;;;;;;;;;;5027290;28;20290;-45
2022/05/05 13:26:50;;;;;;;4.57;2.15;;;;;;;;;;5056715;28;20281;-45
2022/05/05 13:29:17;;;;;;;6.65;2.28;;;;;;;;;;5056727;28;20576;-44
2022/05/05 13:31:45;;;;;;;5.10;2.20;;;;;;;;;;5056490;28;20228;-44
2022/05/05 13:34:12;;;;;;;8.02;2.00;;;;;;;;;;5056692;28;20224;-44
2022/05/05 13:36:40;;;;;;;8.35;2.10;;;;;;;;;;5056796;28;20721;-44
2022/05/05 13:39:12;;;;;;;5.50;1.98;;;;;;;;;;5056214;28;20234;-44
2022/05/05 13:41:39;;;;;;;5.40;2.38;;;;;;;;;;5056486;28;20220;-45
2022/05/05 13:44:06;;;;;;;3.45;1.85;;;;;;;;;;5056319;28;20695;-42
2022/05/05 13:46:36;;;;;;;10.30;2.58;;;;;;;;;;5056231;28;20686;-43
2022/05/05 13:49:08;;;;;;;9.45;2.53;;;;;;;;;;5055820;28;20246;-44
2022/05/05 13:51:37;;;;;;;8.27;2.28;;;;;;;;;;5056484;28;20220;-44
2022/05/05 13:54:24;;;;;;;4.90;2.25;;;;;;;;;;5049798;28;20224;-45
2022/05/05 13:56:52;;;;;;;3.92;2.33;;;;;;;;;;5036249;28;20229;-45
2022/05/05 13:59:20;;;;;;;13.15;2.10;;;;;;;;;;5034301;28;20279;-44
2022/05/05 14:01:48;;;;;;;6.82;2.33;;;;;;;;;;5035873;28;20235;-44
2022/05/05 14:04:15;;;;;;;4.80;2.50;;;;;;;;;;5036423;28;20248;-46
2022/05/05 14:06:42;;;;;;;5.40;2.60;;;;;;;;;;5031270;28;20287;-46
2022/05/05 14:12:10;;;;;;;7.38;2.20;;;;;;;;;;5032603;28;20228;-47
2022/05/05 14:14:39;;;;;;;4.35;2.55;;;;;;;;;;5033966;28;20274;-46
2022/05/05 14:17:06;;;;;;;3.83;2.50;;;;;;;;;;5032220;28;20227;-47
2022/05/05 14:19:34;;;;;;;5.50;2.47;;;;;;;;;;5034051;28;20220;-47
2022/05/05 14:22:01;;;;;;;6.60;2.95;;;;;;;;;;5029271;28;20643;-50
2022/05/05 14:24:29;;;;;;;4.25;2.40;;;;;;;;;;5034849;28;20229;-46
2022/05/05 14:26:56;;;;;;;8.93;2.50;;;;;;;;;;5034820;28;20678;-46
2022/05/05 14:29:23;;;;;;;7.45;2.20;;;;;;;;;;5035650;28;20248;-46
2022/05/05 14:31:51;;;;;;;4.53;2.20;;;;;;;;;;5052713;28;20220;-48
2022/05/05 14:34:20;;;;;;;6.82;2.65;;;;;;;;;;5055589;28;20228;-47
2022/05/05 14:36:47;;;;;;;5.43;2.28;;;;;;;;;;5055809;28;20232;-46
2022/05/05 14:39:16;;;;;;;4.63;2.53;;;;;;;;;;5056328;28;20199;-46
2022/05/05 14:41:43;;;;;;;4.88;2.08;;;;;;;;;;5056037;28;20196;-45
2022/05/05 14:44:10;;;;;;;5.40;2.40;;;;;;;;;;5055828;28;20196;-46
2022/05/05 14:46:37;;;;;;;5.72;2.60;;;;;;;;;;5056205;28;20204;-46
2022/05/05 14:49:04;;;;;;;5.90;2.70;;;;;;;;;;5055618;28;20673;-46
2022/05/05 14:51:31;;;;;;;4.10;2.42;;;;;;;;;;5056797;28;20253;-46
2022/05/05 14:53:59;;;;;;;5.82;2.38;;;;;;;;;;5056079;28;20270;-46
2022/05/05 14:56:26;;;;;;;5.93;2.30;;;;;;;;;;5040614;28;20712;-46
2022/05/05 14:58:53;;;;;;;6.72;2.28;;;;;;;;;;5032128;28;20211;-46
2022/05/05 15:01:21;;;;;;;7.47;2.03;;;;;;;;;;5034368;28;20526;-46
2022/05/05 15:03:49;;;;;;;5.38;2.20;;;;;;;;;;5034897;28;20534;-46
2022/05/05 15:06:17;;;;;;;4.68;2.20;;;;;;;;;;5034526;28;20545;-48
2022/05/05 15:08:45;;;;;;;4.63;2.00;;;;;;;;;;5034291;28;20236;-47
2022/05/05 15:11:12;;;;;;;14.43;2.40;;;;;;;;;;5034271;28;20188;-46
2022/05/05 15:13:39;;;;;;;6.38;2.20;;;;;;;;;;5034575;28;20193;-46
2022/05/05 15:16:06;;;;;;;10.23;2.08;;;;;;;;;;5035050;28;20204;-45
2022/05/05 15:18:33;;;;;;;7.65;2.45;;;;;;;;;;5035526;28;20205;-46
2022/05/05 15:21:02;;;;;;;25.50;2.45;;;;;;;;;;5035079;28;20200;-46
2022/05/05 15:23:30;;;;;;;4.57;2.42;;;;;;;;;;5035216;28;20205;-46
2022/05/05 15:25:59;;;;;;;3.70;2.70;;;;;;;;;;5035207;28;20213;-46
2022/05/05 15:28:27;;;;;;;7.45;2.40;;;;;;;;;;5034911;28;20685;-46
2022/05/05 15:30:55;;;;;;;25.00;3.47;;;;;;;;;;5034541;28;20211;-46
2022/05/05 15:33:23;;;;;;;73.32;5.00;;;;;;;;;;5032245;28;20319;-46
2022/05/05 15:35:50;;;;;;;13.15;2.55;;;;;;;;;;5034013;28;20225;-46
2022/05/05 15:38:17;;;;;;;24.45;3.10;;;;;;;;;;5039956;28;20227;-46
2022/05/05 15:40:44;;;;;;;80.10;4.13;;;;;;;;;;5041671;28;20233;-46
2022/05/05 15:43:11;;;;;;;8.13;2.58;;;;;;;;;;5043884;28;20224;-46
2022/05/05 15:45:39;;;;;;;9.30;2.42;;;;;;;;;;5034304;28;20219;-45
2022/05/05 15:48:06;;;;;;;8.43;2.53;;;;;;;;;;5032584;28;20197;-46